Time;durP1;ratioP1;P1;durP2;ratioP2;P2;SDS_P1;SDS_P2;PMS_P1;PMS_P2;Temp;Humidity;BMP_temperature;BMP_pressure;BME280_temperature;BME280_humidity;BME280_pressure;Samples;Min_cycle;Max_cycle;Signal;HPM_P1;HPM_P2
2022/01/27 00:05:22;;;;;;;29.90;10.82;;;;;;;12.56;63.80;101228.94;4907722;28;119753;-86
2022/01/27 00:08:10;;;;;;;27.33;11.70;;;;;;;12.65;62.50;101234.50;4907954;28;119959;-86
2022/01/27 00:13:10;;;;;;;29.85;11.93;;;;;;;12.69;62.89;101221.34;4894741;28;121372;-87
2022/01/27 00:15:38;;;;;;;30.75;12.43;;;;;;;12.64;62.71;101208.19;4891695;28;122144;-87
2022/01/27 00:18:12;;;;;;;34.78;12.45;;;;;;;12.68;62.43;101197.81;4895672;28;123384;-86
2022/01/27 00:20:38;;;;;;;29.48;11.75;;;;;;;12.65;63.55;101195.19;4922434;28;122339;-87
2022/01/27 00:23:03;;;;;;;31.08;12.68;;;;;;;12.67;62.96;101188.00;4907049;28;122068;-88
2022/01/27 00:25:29;;;;;;;32.22;11.50;;;;;;;12.45;63.68;101143.28;4908727;28;120108;-87
2022/01/27 00:27:58;;;;;;;33.83;12.60;;;;;;;12.62;62.13;101180.34;4894233;28;122177;-86
2022/01/27 00:30:24;;;;;;;33.85;13.10;;;;;;;12.59;61.58;101159.25;4909313;28;124990;-86
2022/01/27 00:32:49;;;;;;;31.38;11.68;;;;;;;12.52;63.02;101152.00;4907955;28;120308;-86
2022/01/27 00:35:15;;;;;;;31.60;12.15;;;;;;;12.63;63.06;101159.09;4893664;28;122655;-86
2022/01/27 00:37:41;;;;;;;26.13;11.27;;;;;;;12.63;63.51;101159.88;4940217;28;120284;-87
2022/01/27 00:40:11;;;;;;;30.00;11.65;;;;;;;12.68;62.19;101151.00;4925645;28;120160;-86
2022/01/27 00:42:37;;;;;;;29.20;12.27;;;;;;;12.70;61.97;101148.56;4909006;28;123673;-87
2022/01/27 00:45:03;;;;;;;27.92;10.85;;;;;;;12.70;63.44;101132.06;4892670;28;120016;-86
2022/01/27 00:47:29;;;;;;;29.15;11.60;;;;;;;12.70;62.33;101120.28;4897365;28;120025;-86
2022/01/27 00:49:54;;;;;;;32.67;12.32;;;;;;;12.80;62.10;101130.13;4874928;28;122252;-86
2022/01/27 00:52:37;;;;;;;37.53;13.77;;;;;;;12.82;61.91;101127.69;4891543;28;119689;-85
2022/01/27 00:55:04;;;;;;;31.80;13.70;;;;;;;12.77;61.56;101120.75;4873202;28;122588;-87
2022/01/27 00:59:59;;;;;;;37.33;15.35;;;;;;;12.65;61.66;101094.13;4892263;28;120402;-85
2022/01/27 01:07:55;;;;;;;43.50;18.10;;;;;;;12.50;63.19;101088.41;4909380;28;122882;-86
2022/01/27 01:15:40;;;;;;;40.25;18.15;;;;;;;12.62;62.28;101081.28;4907341;28;121978;-86
2022/01/27 01:34:25;;;;;;;43.70;18.38;;;;;;;12.49;64.36;101061.34;4895943;28;120017;-84
2022/01/27 01:37:02;;;;;;;38.67;17.40;;;;;;;12.40;65.17;101037.34;4894947;28;122344;-84
2022/01/27 01:39:31;;;;;;;54.40;22.38;;;;;;;12.50;63.97;101054.63;4910982;28;120061;-84
2022/01/27 01:41:58;;;;;;;46.85;20.05;;;;;;;12.52;63.79;101043.94;4912004;28;121938;-85
2022/01/27 01:44:25;;;;;;;47.80;21.48;;;;;;;12.40;63.27;101022.81;4911533;28;122853;-83
2022/01/27 01:46:51;;;;;;;43.30;19.80;;;;;;;12.43;64.10;101041.16;4914098;28;119897;-84
2022/01/27 01:49:17;;;;;;;47.00;20.63;;;;;;;12.30;65.26;101019.25;4878508;28;122312;-82
2022/01/27 01:51:43;;;;;;;39.70;18.85;;;;;;;12.38;64.88;101028.78;4893080;28;120552;-82
2022/01/27 01:54:10;;;;;;;51.88;24.58;;;;;;;12.29;65.03;101031.47;4910080;28;120503;-82
2022/01/27 01:56:40;;;;;;;40.95;18.23;;;;;;;12.31;65.58;101028.31;4894712;28;122672;-84
2022/01/27 01:59:06;;;;;;;48.10;20.52;;;;;;;12.39;64.74;101040.56;4921993;28;120323;-85
2022/01/27 02:01:33;;;;;;;40.83;18.00;;;;;;;12.31;65.01;101026.31;4941433;28;120782;-84
2022/01/27 02:04:07;;;;;;;38.15;17.13;;;;;;;12.17;65.76;101021.38;4896106;28;123064;-84
2022/01/27 02:06:56;;;;;;;36.72;16.58;;;;;;;12.14;65.99;101031.28;4908268;28;123465;-85
2022/01/27 02:20:20;;;;;;;30.40;14.10;;;;;;;12.10;66.61;100978.44;4909748;28;123668;-84
2022/01/27 02:22:45;;;;;;;27.30;14.90;;;;;;;12.14;66.00;100992.78;4893962;28;120418;-82
2022/01/27 02:25:11;;;;;;;30.40;16.10;;;;;;;12.08;65.93;100974.59;4894579;28;122750;-84
2022/01/27 02:27:37;;;;;;;30.38;16.35;;;;;;;12.09;66.07;100996.16;4877850;28;122693;-84
2022/01/27 02:30:04;;;;;;;32.92;16.17;;;;;;;12.17;66.11;100980.88;4892893;28;119930;-84
2022/01/27 02:32:29;;;;;;;36.47;16.05;;;;;;;12.10;66.08;100974.91;4913173;28;119879;-85
2022/01/27 02:34:55;;;;;;;37.50;18.15;;;;;;;12.09;65.66;100965.13;4895063;28;119624;-81
2022/01/27 02:37:20;;;;;;;35.00;17.52;;;;;;;12.11;65.90;100962.69;4890531;28;120660;-83
2022/01/27 02:39:46;;;;;;;37.42;19.33;;;;;;;12.11;66.35;100955.22;4909373;28;120296;-84
2022/01/27 02:42:16;;;;;;;39.15;17.23;;;;;;;12.20;66.55;100963.47;4909631;28;119640;-84
2022/01/27 02:44:54;;;;;;;41.45;19.65;;;;;;;12.23;65.83;100943.31;4911207;28;123372;-85
2022/01/27 02:47:21;;;;;;;47.70;20.83;;;;;;;12.12;65.23;100923.75;4909598;28;120659;-84
2022/01/27 02:49:48;;;;;;;39.72;18.63;;;;;;;12.22;65.61;100932.75;4909556;28;120014;-81
2022/01/27 02:52:14;;;;;;;40.90;20.08;;;;;;;12.26;65.83;100928.66;4911126;28;119536;-84
2022/01/27 02:54:40;;;;;;;50.95;21.73;;;;;;;12.24;65.16;100914.59;4897231;28;123160;-85
2022/01/27 02:57:06;;;;;;;47.30;22.13;;;;;;;12.25;65.12;100921.63;4909603;28;120369;-82
2022/01/27 02:59:32;;;;;;;43.70;20.88;;;;;;;12.21;65.53;100909.22;4890675;28;123916;-84
2022/01/27 03:01:58;;;;;;;47.33;19.95;;;;;;;12.25;66.13;100901.59;4893667;28;120027;-83
2022/01/27 03:04:25;;;;;;;57.08;22.90;;;;;;;12.25;65.03;100894.09;4910916;28;119624;-85
2022/01/27 03:06:52;;;;;;;65.95;25.60;;;;;;;12.23;65.24;100918.56;4891755;28;122802;-84
2022/01/27 03:09:19;;;;;;;54.03;23.10;;;;;;;12.15;64.53;100881.56;4910157;28;120440;-84
2022/01/27 03:11:49;;;;;;;44.90;20.42;;;;;;;12.19;66.32;100873.94;4892449;28;122161;-84
2022/01/27 03:14:20;;;;;;;57.38;23.52;;;;;;;12.17;65.18;100873.63;4908308;28;121021;-84
2022/01/27 03:16:47;;;;;;;50.33;19.55;;;;;;;12.21;66.65;100888.00;4915078;28;119946;-83
2022/01/27 03:19:13;;;;;;;50.42;18.60;;;;;;;12.22;66.93;100875.00;4890845;28;123527;-84
2022/01/27 03:21:39;;;;;;;43.47;18.80;;;;;;;12.21;66.84;100871.50;4908173;28;120560;-83
2022/01/27 03:24:07;;;;;;;41.50;18.02;;;;;;;12.24;66.83;100865.06;4892432;28;121842;-83
2022/01/27 03:26:33;;;;;;;43.20;17.52;;;;;;;12.31;66.79;100833.78;4892988;28;122889;-84
2022/01/27 03:28:59;;;;;;;43.92;18.45;;;;;;;12.42;66.30;100849.81;4911301;28;121085;-85
2022/01/27 03:31:26;;;;;;;49.17;18.33;;;;;;;12.42;65.89;100845.06;4891819;28;122886;-83
2022/01/27 03:33:52;;;;;;;47.40;18.88;;;;;;;12.39;65.96;100831.47;4905031;28;123767;-82
2022/01/27 03:36:18;;;;;;;50.40;19.92;;;;;;;12.37;65.38;100845.69;4880900;28;120902;-81
2022/01/27 03:38:44;;;;;;;55.20;19.00;;;;;;;12.35;66.12;100800.63;4875817;28;122969;-84
2022/01/27 03:41:11;;;;;;;60.28;19.45;;;;;;;12.42;65.80;100828.56;4924196;28;119705;-81
2022/01/27 03:43:38;;;;;;;53.35;18.45;;;;;;;12.45;66.10;100837.88;4909844;28;119756;-83
2022/01/27 03:46:06;;;;;;;46.08;17.85;;;;;;;12.42;65.98;100825.81;4893078;28;125374;-81
2022/01/27 03:48:32;;;;;;;44.70;17.52;;;;;;;12.29;65.77;100809.47;4908840;28;119702;-81
2022/01/27 03:50:58;;;;;;;39.55;16.33;;;;;;;12.38;65.97;100819.72;4908464;28;124004;-83
2022/01/27 03:53:26;;;;;;;39.30;15.73;;;;;;;12.34;66.52;100818.34;4922793;28;121450;-81
2022/01/27 03:55:51;;;;;;;40.90;16.13;;;;;;;12.39;66.63;100806.72;4897788;28;120692;-81
2022/01/27 03:58:17;;;;;;;36.80;15.63;;;;;;;12.39;66.30;100806.72;4914236;28;119757;-81
2022/01/27 04:00:43;;;;;;;39.53;14.38;;;;;;;12.34;66.72;100785.34;4906726;28;119988;-80
2022/01/27 04:03:14;;;;;;;35.13;13.90;;;;;;;12.39;66.99;100781.97;4908434;28;120355;-81
2022/01/27 04:05:43;;;;;;;39.88;14.65;;;;;;;12.44;66.75;100801.38;4933726;28;122884;-81
2022/01/27 04:08:12;;;;;;;33.65;12.30;;;;;;;12.48;66.66;100790.19;4937249;28;120225;-81
2022/01/27 04:10:38;;;;;;;31.05;12.23;;;;;;;12.46;66.52;100767.88;4891273;28;121908;-82
2022/01/27 04:13:06;;;;;;;29.75;12.07;;;;;;;12.49;66.21;100783.47;4906726;28;120303;-80
2022/01/27 04:15:33;;;;;;;32.70;12.50;;;;;;;12.47;65.69;100783.16;4893470;28;121035;-81
2022/01/27 04:17:59;;;;;;;29.83;11.52;;;;;;;12.42;66.71;100773.56;4908461;28;122490;-81
2022/01/27 04:20:27;;;;;;;27.50;10.98;;;;;;;12.45;66.26;100769.13;4895153;28;120435;-82
2022/01/27 04:22:55;;;;;;;25.92;10.57;;;;;;;12.47;65.74;100780.41;4917011;28;121912;-83
2022/01/27 04:25:21;;;;;;;26.15;10.77;;;;;;;12.42;65.79;100762.53;4906824;28;120938;-82
2022/01/27 04:27:51;;;;;;;23.95;10.73;;;;;;;12.40;65.84;100747.72;4889555;28;120333;-82
2022/01/27 04:30:20;;;;;;;23.15;9.63;;;;;;;12.45;65.84;100747.88;4890510;28;122723;-83
2022/01/27 04:32:52;;;;;;;20.17;10.38;;;;;;;12.43;66.67;100755.06;4940959;28;120001;-83
2022/01/27 04:35:20;;;;;;;28.05;11.43;;;;;;;12.48;66.31;100751.69;4911203;28;120862;-83
2022/01/27 04:38:00;;;;;;;27.27;10.68;;;;;;;12.47;66.67;100739.16;4893909;28;121703;-82
2022/01/27 04:41:16;;;;;;;23.98;9.63;;;;;;;12.55;67.08;100740.38;4927080;28;123318;-81
2022/01/27 04:45:50;;;;;;;27.27;11.30;;;;;;;12.61;66.31;100733.03;4908211;28;121343;-80
2022/01/27 04:48:19;;;;;;;26.00;10.93;;;;;;;12.54;66.02;100725.84;4910522;28;119753;-82
2022/01/27 04:50:44;;;;;;;26.65;12.20;;;;;;;12.47;66.17;100719.91;4915158;28;122092;-82
2022/01/27 04:53:21;;;;;;;25.85;11.25;;;;;;;12.45;66.41;100722.34;4907769;28;120488;-82
2022/01/27 04:55:46;;;;;;;31.98;11.82;;;;;;;12.43;66.14;100705.53;4909450;28;120153;-80
2022/01/27 04:58:19;;;;;;;27.90;10.45;;;;;;;12.50;66.70;100716.22;4902063;28;119938;-80
2022/01/27 05:00:45;;;;;;;25.50;11.87;;;;;;;12.55;66.91;100715.63;4938637;28;120248;-80
2022/01/27 05:03:21;;;;;;;25.63;10.63;;;;;;;12.57;66.35;100693.91;4910379;28;119730;-81
2022/01/27 05:05:46;;;;;;;24.10;10.45;;;;;;;12.64;66.30;100706.56;4912330;28;122256;-80
2022/01/27 05:08:17;;;;;;;22.67;9.93;;;;;;;12.63;66.54;100705.78;4908726;28;121715;-82
2022/01/27 05:10:54;;;;;;;26.23;9.20;;;;;;;12.70;66.85;100705.47;4910277;28;120275;-82
2022/01/27 05:13:21;;;;;;;17.65;9.07;;;;;;;12.71;66.46;100692.47;4891239;28;122938;-81
2022/01/27 05:15:46;;;;;;;25.02;10.18;;;;;;;12.72;66.04;100694.75;4909835;28;121060;-82
2022/01/27 05:18:12;;;;;;;19.10;8.68;;;;;;;12.76;66.51;100695.34;4895415;28;123119;-83
2022/01/27 05:20:38;;;;;;;25.70;10.43;;;;;;;12.80;66.34;100681.44;4922876;28;123124;-80
2022/01/27 05:23:04;;;;;;;33.25;11.80;;;;;;;12.80;65.54;100667.66;4910875;28;120471;-82
2022/01/27 05:25:30;;;;;;;31.15;11.40;;;;;;;12.93;66.36;100670.19;4895465;28;122096;-81
2022/01/27 05:27:56;;;;;;;34.05;11.90;;;;;;;12.84;66.62;100655.25;4911134;28;120620;-81
2022/01/27 05:30:22;;;;;;;34.53;12.73;;;;;;;12.85;67.45;100658.78;4909206;28;120050;-82
2022/01/27 05:32:47;;;;;;;36.40;12.65;;;;;;;12.90;67.46;100656.13;4894552;28;122850;-83
2022/01/27 05:35:13;;;;;;;39.00;13.98;;;;;;;12.84;66.98;100649.75;4894256;28;121741;-83
2022/01/27 05:37:39;;;;;;;39.80;13.90;;;;;;;12.78;67.29;100629.59;4907935;28;122441;-81
2022/01/27 05:40:05;;;;;;;42.13;14.32;;;;;;;12.80;67.41;100643.66;4876615;28;123089;-81
2022/01/27 05:42:31;;;;;;;41.13;14.00;;;;;;;12.80;66.66;100640.91;4913033;28;120079;-83
2022/01/27 05:44:56;;;;;;;34.70;12.48;;;;;;;12.79;67.51;100635.88;4906215;28;121448;-82
2022/01/27 05:47:22;;;;;;;40.08;13.15;;;;;;;12.69;67.71;100618.63;4906420;28;119797;-83
2022/01/27 05:49:48;;;;;;;33.22;12.02;;;;;;;12.68;68.32;100635.59;4894952;28;122334;-82
2022/01/27 05:52:14;;;;;;;40.05;13.88;;;;;;;12.69;67.51;100631.63;4912469;28;123195;-83
2022/01/27 05:54:39;;;;;;;40.15;13.27;;;;;;;12.71;67.72;100640.16;4911078;28;119638;-83
2022/01/27 05:57:05;;;;;;;43.10;13.75;;;;;;;12.72;68.04;100641.69;4910602;28;121787;-83
2022/01/27 05:59:30;;;;;;;48.95;15.50;;;;;;;12.71;67.48;100640.94;4910329;28;123012;-84
2022/01/27 06:01:56;;;;;;;53.97;14.95;;;;;;;12.68;68.03;100622.59;4909765;28;120732;-83
2022/01/27 06:04:22;;;;;;;52.80;15.15;;;;;;;12.74;68.25;100626.25;4911030;28;122285;-83
2022/01/27 06:06:47;;;;;;;47.92;15.02;;;;;;;12.76;67.77;100618.28;4878560;28;122945;-82
2022/01/27 06:09:13;;;;;;;49.00;14.07;;;;;;;12.68;68.53;100594.31;4897417;28;122010;-84
2022/01/27 06:11:57;;;;;;;52.20;14.85;;;;;;;12.72;67.98;100616.94;4909656;28;121134;-82
2022/01/27 06:14:23;;;;;;;48.85;14.55;;;;;;;12.73;67.73;100604.69;4910108;28;119730;-82
2022/01/27 06:16:48;;;;;;;46.35;13.82;;;;;;;12.70;68.11;100600.88;4878512;28;121935;-81
2022/01/27 06:19:14;;;;;;;42.65;12.90;;;;;;;12.78;68.71;100604.06;4909510;28;120889;-81
2022/01/27 06:21:42;;;;;;;48.05;13.70;;;;;;;12.73;68.74;100591.69;4903458;28;120054;-81
2022/01/27 06:24:08;;;;;;;53.17;14.32;;;;;;;12.78;68.69;100604.06;4910282;28;120302;-81
2022/01/27 06:26:33;;;;;;;45.88;14.50;;;;;;;12.73;68.14;100599.19;4893228;28;123391;-81
2022/01/27 06:28:59;;;;;;;49.20;14.25;;;;;;;12.82;68.66;100605.41;4910009;28;120320;-83
2022/01/27 06:31:24;;;;;;;52.55;15.07;;;;;;;12.82;69.00;100588.91;4899644;28;121230;-80
2022/01/27 06:33:52;;;;;;;51.15;14.13;;;;;;;12.90;68.60;100611.31;4907908;28;121467;-82
2022/01/27 06:36:18;;;;;;;50.42;14.15;;;;;;;12.91;68.56;100601.84;4909647;28;119557;-81
2022/01/27 06:38:44;;;;;;;53.90;13.82;;;;;;;12.92;68.41;100592.34;4912462;28;120264;-82
2022/01/27 06:41:11;;;;;;;48.47;13.35;;;;;;;12.92;68.31;100589.59;4910339;28;119990;-83
2022/01/27 06:43:37;;;;;;;50.65;14.82;;;;;;;12.95;67.61;100579.63;4893529;28;122218;-80
2022/01/27 06:46:03;;;;;;;50.20;13.32;;;;;;;12.97;68.56;100588.94;4893077;28;122678;-83
2022/01/27 06:48:28;;;;;;;49.42;13.73;;;;;;;12.94;67.82;100576.13;4912973;28;120012;-84
2022/01/27 06:50:55;;;;;;;54.53;13.13;;;;;;;12.89;67.96;100588.53;4909272;28;119755;-84
2022/01/27 06:53:22;;;;;;;40.08;12.52;;;;;;;13.02;68.86;100599.34;4913567;28;123593;-82
2022/01/27 06:55:49;;;;;;;57.83;13.82;;;;;;;13.03;67.05;100594.59;4910021;28;120236;-82
2022/01/27 06:58:14;;;;;;;51.95;13.20;;;;;;;12.94;67.44;100591.88;4904102;28;121118;-83
2022/01/27 07:00:43;;;;;;;50.70;13.38;;;;;;;12.86;68.35;100566.69;4908144;28;120220;-83
2022/01/27 07:03:08;;;;;;;51.63;13.13;;;;;;;12.84;68.53;100569.94;4892757;28;121710;-83
2022/01/27 07:05:34;;;;;;;47.03;13.18;;;;;;;12.85;68.25;100576.94;4895873;28;123236;-83
2022/01/27 07:08:01;;;;;;;49.22;12.75;;;;;;;12.91;69.05;100580.56;4909586;28;120674;-83
2022/01/27 07:10:27;;;;;;;38.90;12.10;;;;;;;13.02;69.15;100604.84;4908086;28;119814;-82
2022/01/27 07:12:52;;;;;;;45.13;12.07;;;;;;;13.01;69.86;100580.50;4910095;28;119959;-82
2022/01/27 07:15:20;;;;;;;45.80;11.80;;;;;;;13.07;69.97;100589.66;4913898;28;119950;-83
2022/01/27 07:17:47;;;;;;;49.78;12.45;;;;;;;13.07;68.68;100592.41;4908581;28;123707;-83
2022/01/27 07:20:13;;;;;;;47.90;12.07;;;;;;;13.13;68.08;100604.31;4911541;28;121046;-80
2022/01/27 07:22:39;;;;;;;41.60;12.32;;;;;;;13.07;69.50;100598.69;4917332;28;120209;-82
2022/01/27 07:25:06;;;;;;;49.50;12.38;;;;;;;13.08;69.59;100582.94;4895351;28;123900;-83
2022/01/27 07:27:33;;;;;;;58.13;13.32;;;;;;;13.07;69.29;100573.16;4892749;28;119835;-82
2022/01/27 07:30:00;;;;;;;52.67;13.02;;;;;;;13.16;68.74;100584.84;4908479;28;121912;-84
2022/01/27 07:32:25;;;;;;;47.33;12.38;;;;;;;13.17;69.19;100580.88;4908994;28;120295;-84
2022/01/27 07:34:51;;;;;;;46.05;11.90;;;;;;;13.14;68.90;100592.06;4908489;28;120426;-84
2022/01/27 07:37:17;;;;;;;46.55;12.25;;;;;;;13.14;68.99;100583.78;4914702;28;119674;-84
2022/01/27 07:39:43;;;;;;;47.33;11.35;;;;;;;13.17;69.08;100608.44;4904987;28;119528;-83
2022/01/27 07:42:08;;;;;;;46.50;11.52;;;;;;;13.22;69.54;100587.72;4904081;28;121170;-81
2022/01/27 07:44:34;;;;;;;48.00;11.18;;;;;;;13.26;70.02;100595.84;4923127;28;123315;-82
2022/01/27 07:47:00;;;;;;;51.08;10.93;;;;;;;13.21;68.75;100586.22;4893893;28;120013;-82
2022/01/27 07:49:26;;;;;;;47.97;11.27;;;;;;;13.20;70.04;100584.69;4908251;28;120511;-83
2022/01/27 07:51:52;;;;;;;48.47;11.45;;;;;;;13.12;68.96;100578.00;4907570;28;120885;-81
2022/01/27 07:54:17;;;;;;;44.55;9.82;;;;;;;13.21;68.11;100599.97;4878194;28;119861;-81
2022/01/27 07:56:43;;;;;;;45.13;11.13;;;;;;;13.10;67.69;100591.47;4911847;28;119887;-82
2022/01/27 07:59:08;;;;;;;46.88;9.98;;;;;;;13.04;67.70;100585.88;4909121;28;120156;-82
2022/01/27 08:01:34;;;;;;;39.13;9.73;;;;;;;13.13;67.87;100605.06;4893783;28;121328;-83
2022/01/27 08:04:00;;;;;;;37.25;9.60;;;;;;;13.10;69.53;100600.50;4905581;28;120022;-83
2022/01/27 08:06:26;;;;;;;44.70;10.35;;;;;;;13.19;68.01;100583.94;4892229;28;119717;-84
2022/01/27 08:08:51;;;;;;;39.97;9.88;;;;;;;13.14;68.60;100570.03;4923742;28;122489;-81
2022/01/27 08:11:18;;;;;;;40.70;9.57;;;;;;;13.18;68.78;100581.66;4922264;28;120308;-83
2022/01/27 08:13:44;;;;;;;38.60;10.20;;;;;;;13.27;67.03;100603.63;4908307;28;119666;-85
2022/01/27 08:16:09;;;;;;;49.45;9.93;;;;;;;13.19;68.35;100574.91;4873670;28;122433;-84
2022/01/27 08:18:35;;;;;;;41.65;9.38;;;;;;;13.20;68.27;100581.94;4910275;28;122981;-82
2022/01/27 08:21:01;;;;;;;52.75;9.23;;;;;;;13.16;68.28;100578.56;4903313;28;121983;-83
2022/01/27 08:23:27;;;;;;;43.00;9.20;;;;;;;13.26;67.59;100577.31;4907962;28;122822;-83
2022/01/27 08:26:06;;;;;;;46.63;9.70;;;;;;;13.29;67.88;100592.91;4905563;28;119977;-84
2022/01/27 08:28:39;;;;;;;45.88;9.00;;;;;;;13.21;67.06;100573.19;4908093;28;119915;-83
2022/01/27 08:31:04;;;;;;;48.42;10.60;;;;;;;13.25;67.95;100581.31;4903679;28;121143;-82
2022/01/27 08:33:32;;;;;;;46.47;9.43;;;;;;;13.26;68.70;100577.31;4891771;28;120065;-83
2022/01/27 08:35:58;;;;;;;43.40;9.82;;;;;;;13.32;69.79;100575.44;4920342;28;119617;-82
2022/01/27 08:38:28;;;;;;;47.70;10.00;;;;;;;13.30;70.28;100577.91;4900289;28;122714;-84
2022/01/27 08:40:54;;;;;;;42.50;9.15;;;;;;;13.39;70.03;100577.81;4906827;28;120677;-83
2022/01/27 08:43:20;;;;;;;45.30;9.38;;;;;;;13.48;69.39;100590.75;4929522;28;121132;-84
2022/01/27 08:45:46;;;;;;;46.53;9.30;;;;;;;13.47;68.23;100589.22;4906298;28;122022;-83
2022/01/27 08:48:17;;;;;;;37.15;9.10;;;;;;;13.35;67.62;100568.22;4906283;28;121231;-84
2022/01/27 08:50:49;;;;;;;46.42;8.85;;;;;;;13.50;67.44;100583.53;4907405;28;123714;-83
2022/01/27 08:53:14;;;;;;;37.38;8.55;;;;;;;13.51;67.05;100576.81;4921588;28;121678;-84
2022/01/27 08:55:40;;;;;;;42.95;9.10;;;;;;;13.54;65.96;100580.59;4874227;28;120739;-83
2022/01/27 08:58:06;;;;;;;45.13;9.45;;;;;;;13.52;65.29;100572.81;4905630;28;120177;-83
2022/01/27 09:00:31;;;;;;;46.38;10.48;;;;;;;13.46;65.97;100573.91;4907149;28;122176;-84
2022/01/27 09:02:58;;;;;;;50.97;10.73;;;;;;;13.46;66.26;100579.44;4908034;28;123360;-83
2022/01/27 09:05:24;;;;;;;51.88;9.88;;;;;;;13.49;65.70;100582.03;4906781;28;119896;-84
2022/01/27 09:07:53;;;;;;;46.40;9.10;;;;;;;13.42;64.85;100587.88;4890994;28;119851;-84
2022/01/27 09:10:18;;;;;;;41.65;9.30;;;;;;;13.34;66.05;100567.44;4908151;28;119990;-84
2022/01/27 09:12:44;;;;;;;43.65;10.15;;;;;;;13.36;65.02;100573.25;4909289;28;119737;-84
2022/01/27 09:15:10;;;;;;;43.85;8.80;;;;;;;13.38;64.57;100576.28;4910560;28;119636;-82
2022/01/27 09:17:39;;;;;;;46.88;9.98;;;;;;;13.39;63.86;100579.81;4906626;28;121407;-84
2022/01/27 09:20:08;;;;;;;46.70;9.68;;;;;;;13.48;65.63;100593.50;4892944;28;120031;-85
2022/01/27 09:22:36;;;;;;;42.25;9.55;;;;;;;13.54;66.12;100604.66;4912482;28;122292;-84
2022/01/27 09:25:09;;;;;;;45.38;9.15;;;;;;;13.55;63.82;100604.16;4884002;28;122870;-84
2022/01/27 09:27:35;;;;;;;50.15;9.70;;;;;;;13.50;63.59;100604.84;4912954;28;120200;-85
2022/01/27 09:30:01;;;;;;;45.22;9.13;;;;;;;13.37;63.77;100607.06;4912296;28;120400;-83
2022/01/27 09:32:27;;;;;;;49.38;9.40;;;;;;;13.34;63.26;100605.25;4926106;28;120398;-84
2022/01/27 09:34:52;;;;;;;38.83;8.52;;;;;;;13.31;63.68;100601.44;4879459;28;122274;-84
2022/01/27 09:37:18;;;;;;;46.22;9.13;;;;;;;13.22;64.05;100620.78;4909419;28;122809;-85
2022/01/27 09:39:45;;;;;;;50.70;9.98;;;;;;;13.26;63.56;100609.63;4910143;28;121296;-85
2022/01/27 09:42:12;;;;;;;41.95;9.07;;;;;;;13.22;62.66;100609.75;4928077;28;119805;-85
2022/01/27 09:44:40;;;;;;;52.65;9.27;;;;;;;13.12;61.89;100630.31;4910767;28;119971;-85
2022/01/27 09:47:16;;;;;;;50.80;9.65;;;;;;;13.13;62.16;100620.81;4897881;28;120112;-85
2022/01/27 09:49:49;;;;;;;48.92;8.50;;;;;;;13.07;63.24;100625.47;4894880;28;122960;-85
2022/01/27 09:52:15;;;;;;;39.67;8.40;;;;;;;13.07;62.16;100619.97;4925588;28;120422;-84
2022/01/27 09:54:41;;;;;;;42.58;8.23;;;;;;;13.14;61.95;100639.63;4926012;28;121896;-85
2022/01/27 09:57:09;;;;;;;40.90;7.72;;;;;;;13.10;61.40;100630.78;4912741;28;119940;-85
2022/01/27 09:59:35;;;;;;;39.70;8.90;;;;;;;13.16;62.60;100626.16;4910547;28;119724;-85
2022/01/27 10:02:07;;;;;;;40.95;8.30;;;;;;;13.26;61.35;100632.41;4910784;28;120488;-84
2022/01/27 10:04:45;;;;;;;39.35;7.95;;;;;;;13.25;61.40;100630.88;4911002;28;120094;-86
2022/01/27 10:07:14;;;;;;;41.15;8.52;;;;;;;13.27;61.73;100628.41;4930921;28;120918;-86
2022/01/27 10:09:55;;;;;;;38.97;7.90;;;;;;;13.22;61.84;100615.28;4874988;28;123341;-85
2022/01/27 10:12:30;;;;;;;44.75;8.73;;;;;;;13.29;62.98;100616.94;4924531;28;120784;-86
2022/01/27 10:14:58;;;;;;;37.38;8.13;;;;;;;13.38;63.23;100623.13;4891862;28;123051;-84
2022/01/27 10:17:24;;;;;;;42.00;8.60;;;;;;;13.34;62.89;100639.06;4892101;28;123623;-85
2022/01/27 10:19:53;;;;;;;49.22;8.88;;;;;;;13.32;60.64;100625.00;4905804;28;120180;-84
2022/01/27 10:22:19;;;;;;;42.13;8.95;;;;;;;13.24;61.71;100648.63;4908568;28;122010;-86
2022/01/27 10:24:45;;;;;;;42.17;7.55;;;;;;;13.14;61.13;100633.38;4908726;28;124138;-84
2022/01/27 10:32:56;;;;;;;42.30;7.93;;;;;;;13.04;59.02;100642.91;4907733;28;119827;-85
2022/01/27 10:35:26;;;;;;;46.75;7.50;;;;;;;13.10;59.69;100652.06;4892361;28;122142;-87
2022/01/27 10:38:01;;;;;;;31.40;6.43;;;;;;;13.10;61.69;100657.56;4906726;28;121672;-86
2022/01/27 10:40:32;;;;;;;39.88;8.25;;;;;;;13.07;60.04;100642.75;4906976;28;119944;-84
2022/01/27 10:43:22;;;;;;;43.08;8.82;;;;;;;13.07;60.21;100650.25;4907956;28;122439;-85
2022/01/27 10:46:00;;;;;;;44.83;8.30;;;;;;;13.08;60.35;100658.03;4923191;28;123035;-84
2022/01/27 10:48:30;;;;;;;37.88;8.65;;;;;;;13.02;59.72;100650.91;4921977;28;121512;-86
2022/01/27 10:51:07;;;;;;;45.28;8.13;;;;;;;13.02;59.50;100651.66;4906076;28;119971;-84
2022/01/27 10:53:45;;;;;;;36.13;7.57;;;;;;;13.04;59.69;100648.44;4895950;28;123828;-84
2022/01/27 10:56:17;;;;;;;40.13;7.78;;;;;;;13.03;58.17;100653.19;4891992;28;119972;-89
2022/01/27 10:58:43;;;;;;;41.85;7.65;;;;;;;12.93;60.63;100621.41;4906134;28;120434;-86
2022/01/27 11:01:08;;;;;;;33.97;7.63;;;;;;;12.96;60.28;100633.47;4906797;28;120053;-85
2022/01/27 11:03:35;;;;;;;35.88;7.30;;;;;;;13.02;59.94;100637.88;4907923;28;121937;-86
2022/01/27 11:06:10;;;;;;;36.03;7.28;;;;;;;13.06;59.03;100634.94;4907880;28;120679;-85
2022/01/27 11:08:37;;;;;;;33.80;6.95;;;;;;;13.10;60.82;100613.50;4891098;28;120111;-87
2022/01/27 11:11:05;;;;;;;34.08;7.80;;;;;;;13.10;60.12;100627.28;4921504;28;121830;-85
2022/01/27 11:13:33;;;;;;;36.70;7.70;;;;;;;13.11;60.00;100615.78;4906643;28;122805;-87
2022/01/27 11:15:59;;;;;;;41.00;7.95;;;;;;;13.09;59.63;100604.47;4912003;28;119737;-86
2022/01/27 11:18:27;;;;;;;33.63;7.55;;;;;;;13.23;62.00;100627.81;4908098;28;120006;-86
2022/01/27 11:20:58;;;;;;;35.15;7.32;;;;;;;13.15;59.77;100612.84;4904802;28;119869;-86
2022/01/27 11:26:43;;;;;;;34.45;7.60;;;;;;;13.23;58.42;100614.03;4844420;28;122666;-86
2022/01/27 11:29:14;;;;;;;33.25;6.93;;;;;;;13.31;58.66;100611.72;4847671;28;121917;-85
2022/01/27 11:32:04;;;;;;;43.67;7.53;;;;;;;13.21;57.57;100575.19;4829612;28;122365;-87
2022/01/27 11:34:50;;;;;;;29.02;7.15;;;;;;;13.19;58.98;100618.97;4832372;28;120799;-85
2022/01/27 11:37:18;;;;;;;30.33;6.40;;;;;;;13.18;59.84;100620.19;4848407;28;120774;-85
2022/01/27 11:39:54;;;;;;;31.75;6.78;;;;;;;13.18;59.88;100617.44;4835625;28;122912;-84
2022/01/27 11:42:35;;;;;;;32.40;7.03;;;;;;;13.17;59.01;100619.44;4846850;28;120022;-85
2022/01/27 11:45:23;;;;;;;29.90;5.75;;;;;;;13.14;60.79;100614.09;4846236;28;120500;-85
2022/01/27 11:47:58;;;;;;;35.80;6.55;;;;;;;13.13;60.45;100613.31;4832422;28;124073;-84
2022/01/27 11:50:34;;;;;;;34.13;6.15;;;;;;;13.22;60.64;100634.56;4831731;28;119689;-87
2022/01/27 11:53:14;;;;;;;28.73;6.07;;;;;;;13.12;58.25;100600.03;4832255;28;122719;-86
2022/01/27 11:55:44;;;;;;;31.27;6.20;;;;;;;13.02;57.88;100613.09;4848364;28;120825;-85
2022/01/27 11:58:18;;;;;;;30.25;7.43;;;;;;;13.08;58.39;100615.97;4887312;28;120376;-86
2022/01/27 12:01:01;;;;;;;30.02;6.00;;;;;;;13.12;59.52;100597.28;4885462;28;121674;-86
2022/01/27 12:03:26;;;;;;;37.05;7.13;;;;;;;13.04;57.99;100607.88;4887993;28;120207;-87
2022/01/27 12:06:18;;;;;;;31.17;6.97;;;;;;;13.06;57.46;100629.44;4887052;28;122297;-86
2022/01/27 12:08:44;;;;;;;27.63;5.70;;;;;;;13.01;57.05;100617.09;4901931;28;124419;-86